Flight Track Log - Related Links

Times and Time Zones

All times are in EDT time to prevent confusion due to time zone crossing. See the AWE1992 flight status page for this flight to view local times or setup timezone preferences in your user account.

Time Position Orientation Groundspeed Altitude Reporting Facility
EDT Latitude Longitude Course Direction KTS MPH feet Rate Location/Type
Tue 04:26:06 PM 35.1950 -80.9356 106° East 166 191 1,600  Level Atlanta Center
Tue 04:30:17 PM 35.1267 -80.6436 34° Northeast 305 351 6,400 1,505 Climbing Atlanta Center
Tue 04:31:17 PM 35.1919 -80.5900 30° Northeast 301 346 9,400 2,450 Climbing Atlanta Center
Tue 04:32:17 PM 35.2678 -80.5358 39° Northeast 299 344 11,300 2,000 Climbing Atlanta Center
Tue 04:33:17 PM 35.3347 -80.4694 69° East 322 371 13,400 2,450 Climbing Atlanta Center
Tue 04:34:17 PM 35.3708 -80.3508 71° East 352 405 16,200 2,429 Climbing Atlanta Center
Tue 04:36:00 PM 35.4358 -80.1222 72° East 410 472 20,000 2,025 Climbing Washington Center
Tue 04:37:00 PM 35.4700 -79.9964 72° East 402 463 21,700 1,884 Climbing Washington Center
Tue 04:38:01 PM 35.5039 -79.8656 73° East 396 456 23,800 1,488 Climbing Washington Center
Tue 04:39:01 PM 35.5403 -79.7194 71° East 416 479 24,700 1,240 Climbing Washington Center
Tue 04:40:02 PM 35.5808 -79.5711 72° East 444 511 26,300 1,462 Climbing Washington Center
Tue 04:41:00 PM 35.6189 -79.4247 51° Northeast 458 527 27,600 1,361 Climbing Washington Center
Tue 04:42:01 PM 35.6914 -79.3131 36° Northeast 449 517 29,000 1,537 Climbing Washington Center
Tue 04:43:01 PM 35.7944 -79.2206 39° Northeast 449 517 30,700 992 Climbing Washington Center
Tue 04:44:02 PM 35.8933 -79.1200 39° Northeast 449 517 31,000 149 Climbing Washington Center
Tue 04:45:02 PM 35.9922 -79.0217 40° Northeast 454 522 31,000  Level Washington Center
Tue 04:46:00 PM 36.0911 -78.9206 39° Northeast 459 528 31,000  Level Washington Center
Tue 04:47:00 PM 36.2003 -78.8119 38° Northeast 459 528 31,000  Level Washington Center
Tue 04:48:01 PM 36.2989 -78.7156 39° Northeast 454 522 31,000  Level Washington Center
Tue 04:49:02 PM 36.3975 -78.6164 38° Northeast 454 522 31,000  Level Washington Center
Tue 04:50:00 PM 36.4981 -78.5169 40° Northeast 454 522 31,000  Level Washington Center
Tue 04:51:01 PM 36.5942 -78.4169 40° Northeast 454 522 31,000  Level Washington Center
Tue 04:52:01 PM 36.6906 -78.3169 39° Northeast 446 513 31,000  Level Washington Center
Tue 04:53:02 PM 36.7867 -78.2192 39° Northeast 441 507 31,000  Level Washington Center
Tue 04:54:02 PM 36.8825 -78.1211 39° Northeast 441 507 31,000  Level Washington Center
Tue 04:55:00 PM 36.9786 -78.0228 39° Northeast 441 507 31,000  Level Washington Center
Tue 04:56:01 PM 37.0742 -77.9244 40° Northeast 441 507 31,000  Level Washington Center
Tue 04:57:02 PM 37.1700 -77.8231 39° Northeast 441 507 31,000  Level Washington Center
Tue 04:58:02 PM 37.2658 -77.7239 39° Northeast 441 507 31,000  Level Washington Center
Tue 04:59:00 PM 37.3633 -77.6247 40° Northeast 441 507 31,000  Level Washington Center
Tue 05:00:00 PM 37.4589 -77.5228 39° Northeast 441 507 31,000  Level Washington Center
Tue 05:01:01 PM 37.5567 -77.4231 40° Northeast 441 507 31,000  Level Washington Center
Tue 05:02:01 PM 37.6519 -77.3203 40° Northeast 441 507 31,000  Level Washington Center
Tue 05:03:02 PM 37.7472 -77.2200 40° Northeast 441 507 31,000  Level Washington Center
Tue 05:04:00 PM 37.8425 -77.1169 40° Northeast 441 507 31,000  Level Washington Center
Tue 05:05:01 PM 37.9394 -77.0136 40° Northeast 441 507 31,000  Level Washington Center
Tue 05:06:02 PM 38.0344 -76.9125 41° Northeast 441 507 31,000  Level Washington Center
Tue 05:07:00 PM 38.1294 -76.8086 40° Northeast 441 507 31,000  Level Washington Center
Tue 05:08:00 PM 38.2286 -76.7019 40° Northeast 441 507 31,000  Level Washington Center
Tue 05:09:00 PM 38.3253 -76.6000 41° Northeast 441 507 31,000  Level Washington Center
Tue 05:10:01 PM 38.4222 -76.4928 40° Northeast 446 513 31,000  Level Washington Center
Tue 05:11:02 PM 38.5208 -76.3878 40° Northeast 451 519 31,000  Level Washington Center
Tue 05:12:02 PM 38.6175 -76.2825 40° Northeast 451 519 31,000  Level Washington Center
Tue 05:13:00 PM 38.7139 -76.1797 40° Northeast 451 519 31,000  Level Washington Center
Tue 05:14:01 PM 38.8019 -76.0844 43° Northeast 451 519 31,000  Level Washington Center
Tue 05:15:02 PM 38.8939 -75.9756 39° Northeast 451 519 31,000  Level Washington Center
Tue 05:16:02 PM 38.9922 -75.8719 41° Northeast 451 519 31,000  Level Washington Center
Tue 05:17:00 PM 39.0883 -75.7628 39° Northeast 451 519 31,000  Level Washington Center
Tue 05:18:00 PM 39.1842 -75.6611 40° Northeast 451 519 31,000  Level Washington Center
Tue 05:19:01 PM 39.2822 -75.5539 42° Northeast 451 519 31,000  Level Washington Center
Tue 05:20:02 PM 39.3758 -75.4439 41° Northeast 451 519 31,000  Level Washington Center
Tue 05:21:02 PM 39.4736 -75.3333 41° Northeast 457 526 31,000  Level Washington Center
Tue 05:22:02 PM 39.5692 -75.2253 42° Northeast 457 526 31,000  Level Washington Center
Tue 05:23:00 PM 39.6772 -75.1008 42° Northeast 457 526 31,000  Level Washington Center
Tue 05:24:36 PM 39.8192 -74.9358 41° Northeast 453 521 31,000  Level New York Center
Tue 05:25:36 PM 39.9275 -74.8150 42° Northeast 459 528 31,000  Level New York Center
Tue 05:26:34 PM 40.0122 -74.7142 60° Northeast 459 528 31,000  Level New York Center
Tue 05:27:34 PM 40.0844 -74.5475 61° Northeast 469 540 31,000  Level New York Center
Tue 05:28:35 PM 40.1431 -74.4094 64° Northeast 468 539 31,000 -115 Level New York Center
Tue 05:31:03 PM 40.2908 -74.0153 63° Northeast 467 537 30,600 -404 Descending Boston Center
Tue 05:32:03 PM 40.3514 -73.8561 64° Northeast 467 537 29,600 -1,000 Descending Boston Center
Tue 05:33:03 PM 40.4117 -73.6964 62° Northeast 467 537 28,600 -1,300 Descending Boston Center
Tue 05:34:03 PM 40.4778 -73.5314 65° Northeast 482 555 27,000 -800 Descending Boston Center
Tue 05:35:03 PM 40.5356 -73.3686 64° Northeast 488 562 27,000 -100 Level Boston Center
Tue 05:36:03 PM 40.5953 -73.2053 63° Northeast 488 562 26,800 -450 Descending Boston Center
Tue 05:37:03 PM 40.6567 -73.0447 65° Northeast 488 562 26,100 -850 Descending Boston Center
Tue 05:38:03 PM 40.7156 -72.8808 65° Northeast 488 562 25,100 -950 Descending Boston Center
Tue 05:39:03 PM 40.7683 -72.7306 64° Northeast 488 562 24,200 -950 Descending Boston Center
Tue 05:40:03 PM 40.8269 -72.5689 64° Northeast 488 562 23,200 -1,900 Descending Boston Center
Tue 05:41:03 PM 40.8853 -72.4100 65° Northeast 488 562 20,400 -2,900 Descending Boston Center
Tue 05:42:03 PM 40.9394 -72.2561 66° East 472 543 17,400 -3,060 Descending Boston Center
Tue 05:42:43 PM 40.9744 -72.1514 66° East 459 528 15,300 -2,972 Descending Boston Center
Tue 05:43:50 PM 41.0322 -71.9806 46° Northeast 438 504 12,100 -2,109 Descending Boston Center
Tue 05:44:51 PM 41.1069 -71.8781 31° Northeast 387 445 10,800 -1,041 Descending Boston Center
Tue 05:45:51 PM 41.1919 -71.8111 30° Northeast 340 391 10,000 -1,091 Descending Boston Center
Tue 05:46:52 PM 41.2686 -71.7525 34° Northeast 317 365 8,600 -1,672 Descending Boston Center
Tue 05:47:53 PM 41.3453 -71.6825 33° Northeast 310 357 6,600 -1,686 Descending Boston Center
Tue 05:48:53 PM 41.4158 -71.6208 41° Northeast 307 353 5,200 -793 Descending Boston Center
Tue 05:49:54 PM 41.4819 -71.5450 40° Northeast 301 346 5,000 -98 Descending Boston Center
Tue 05:50:55 PM 41.5439 -71.4750 40° Northeast 305 351 5,000  Level Boston Center
Tue 05:51:49 PM 41.6036 -71.4072 40° Northeast 305 351 5,000 -188 Level Boston Center
Tue 05:53:03 PM 41.6842 -71.3169 40° Northeast 305 351 4,600 -324 Descending Boston Center

Login

Don't have an account? Register now (free) for customized features, flight alerts, and more!